createdAt,value
2022-10-03T00:00:16.675Z,3.37
2022-10-03T00:03:20.245Z,2.73
2022-10-03T00:06:09.341Z,3.63
2022-10-03T00:09:19.812Z,4.10
2022-10-03T00:12:01.755Z,5.20
2022-10-03T00:14:43.168Z,5.07
2022-10-03T00:17:18.247Z,4.73
2022-10-03T00:19:57.438Z,3.77
2022-10-03T00:22:37.476Z,8.90
2022-10-03T00:25:21.953Z,4.00
2022-10-03T00:28:05.987Z,5.83
2022-10-03T00:30:51.372Z,2.20
2022-10-03T00:33:27.204Z,2.93
2022-10-03T00:36:10.107Z,2.47
2022-10-03T00:39:04.761Z,2.67
2022-10-03T00:42:19.940Z,7.23
2022-10-03T00:45:42.641Z,3.37
2022-10-03T00:48:43.799Z,4.00
2022-10-03T00:51:26.240Z,6.90
2022-10-03T00:54:04.890Z,6.10
2022-10-03T00:56:50.685Z,9.77
2022-10-03T00:59:36.393Z,9.03
2022-10-03T01:02:28.708Z,15.80
2022-10-03T01:05:07.508Z,5.60
2022-10-03T01:08:22.800Z,4.47
2022-10-03T01:10:58.184Z,12.80
2022-10-03T01:13:35.611Z,5.57
2022-10-03T01:16:16.059Z,5.17
2022-10-03T01:18:57.597Z,2.63
2022-10-03T01:21:35.953Z,8.73
2022-10-03T01:24:40.211Z,3.90
2022-10-03T01:27:15.390Z,7.37
2022-10-03T01:30:10.239Z,6.80
2022-10-03T01:32:45.344Z,15.43
2022-10-03T01:35:24.143Z,4.20
2022-10-03T01:38:03.124Z,7.40
2022-10-03T01:40:37.137Z,4.70
2022-10-03T01:43:14.864Z,4.50
2022-10-03T01:45:59.483Z,4.20
2022-10-03T01:48:36.839Z,4.73
2022-10-03T01:51:11.749Z,4.30
2022-10-03T01:53:55.872Z,3.67
2022-10-03T01:56:34.362Z,3.23
2022-10-03T01:59:08.693Z,4.13
2022-10-03T02:01:49.518Z,3.50
2022-10-03T02:04:33.907Z,3.00
2022-10-03T02:07:09.600Z,3.33
2022-10-03T02:09:50.048Z,2.80
2022-10-03T02:12:29.156Z,4.17
2022-10-03T02:15:02.506Z,4.57
2022-10-03T02:17:47.672Z,6.13
2022-10-03T02:20:27.517Z,3.10
2022-10-03T02:22:57.834Z,3.37
2022-10-03T02:25:31.212Z,2.90
2022-10-03T02:28:55.371Z,3.07
2022-10-03T02:31:50.387Z,4.60
2022-10-03T02:38:01.664Z,14.60
2022-10-03T02:41:08.044Z,16.50
2022-10-03T02:44:26.875Z,8.90
2022-10-03T02:47:29.391Z,9.77
2022-10-03T02:50:40.469Z,7.17
2022-10-03T02:53:45.952Z,4.60
2022-10-03T02:56:44.050Z,5.20
2022-10-03T02:59:45.611Z,4.80
2022-10-03T03:02:47.483Z,3.93
2022-10-03T03:05:30.143Z,5.33
2022-10-03T03:08:33.781Z,4.13
2022-10-03T03:11:35.009Z,4.43
2022-10-03T03:14:50.550Z,2.90
2022-10-03T03:17:32.079Z,3.20
2022-10-03T03:20:26.508Z,3.47
2022-10-03T03:23:11.857Z,4.00
2022-10-03T03:26:13.456Z,4.33
2022-10-03T03:28:55.596Z,3.33
2022-10-03T03:31:34.076Z,3.80
2022-10-03T03:34:10.723Z,4.03
2022-10-03T03:36:45.634Z,3.20
2022-10-03T03:39:26.373Z,3.63
2022-10-03T03:42:13.991Z,2.73
2022-10-03T03:45:03.743Z,3.03
2022-10-03T03:47:46.783Z,3.50
2022-10-03T03:50:32.088Z,3.30
2022-10-03T03:53:29.796Z,3.20
2022-10-03T03:56:15.060Z,3.37
2022-10-03T03:58:51.764Z,3.53
2022-10-03T04:01:50.293Z,3.50
2022-10-03T04:04:34.843Z,3.30
2022-10-03T04:07:21.623Z,3.50
2022-10-03T04:10:34.357Z,3.37
2022-10-03T04:16:54.254Z,3.50
2022-10-03T04:19:33.388Z,4.10
2022-10-03T04:22:23.539Z,3.23
2022-10-03T04:25:15.941Z,3.77
2022-10-03T04:27:58.506Z,3.83
2022-10-03T04:30:35.524Z,3.40
2022-10-03T04:33:35.457Z,4.70
2022-10-03T04:36:31.299Z,2.70
2022-10-03T04:39:08.008Z,4.57
2022-10-03T04:41:43.879Z,7.10
2022-10-03T04:44:29.479Z,6.03
2022-10-03T04:47:03.935Z,4.17
2022-10-03T04:49:44.144Z,6.97
2022-10-03T04:52:20.405Z,6.60
2022-10-03T04:54:57.466Z,4.83
2022-10-03T04:57:32.399Z,4.67
2022-10-03T05:00:09.228Z,4.83
2022-10-03T05:02:47.874Z,4.80
2022-10-03T05:05:43.533Z,5.90
2022-10-03T05:08:30.039Z,5.03
2022-10-03T05:11:11.095Z,5.30
2022-10-03T05:14:03.423Z,6.07
2022-10-03T05:16:41.203Z,5.20
2022-10-03T05:19:41.975Z,5.83
2022-10-03T05:22:21.870Z,5.00
2022-10-03T05:24:58.475Z,5.30
2022-10-03T05:27:35.725Z,5.83
2022-10-03T05:30:09.868Z,5.90
2022-10-03T05:32:43.036Z,5.30
2022-10-03T05:35:26.152Z,5.53
2022-10-03T05:38:15.749Z,5.77
2022-10-03T05:40:51.210Z,5.60
2022-10-03T05:43:36.144Z,7.60
2022-10-03T05:46:15.800Z,6.60
2022-10-03T05:48:50.050Z,5.63
2022-10-03T05:51:44.896Z,6.27
2022-10-03T05:54:51.481Z,6.57
2022-10-03T05:58:00.234Z,5.93
2022-10-03T06:00:40.947Z,6.60
2022-10-03T06:03:49.244Z,8.67
2022-10-03T06:06:25.431Z,6.27
2022-10-03T06:09:11.588Z,7.03
2022-10-03T06:11:58.181Z,7.23
2022-10-03T06:14:54.785Z,6.27
2022-10-03T06:17:46.638Z,6.20
2022-10-03T06:20:55.169Z,8.37
2022-10-03T06:23:59.456Z,5.47
2022-10-03T06:26:56.321Z,6.63
2022-10-03T06:30:03.965Z,7.53
2022-10-03T06:33:11.611Z,7.17
2022-10-03T06:36:22.857Z,9.80
2022-10-03T06:39:22.972Z,8.83
2022-10-03T06:42:22.048Z,9.23
2022-10-03T06:45:30.983Z,7.83
2022-10-03T06:48:25.627Z,7.10
2022-10-03T06:51:01.067Z,8.87
2022-10-03T06:54:02.615Z,7.27
2022-10-03T06:56:57.112Z,8.23
2022-10-03T06:59:47.217Z,7.37
2022-10-03T07:02:52.955Z,6.77
2022-10-03T07:06:11.729Z,8.07
2022-10-03T07:09:15.046Z,6.87
2022-10-03T07:12:10.822Z,6.93
2022-10-03T07:15:14.989Z,8.93
2022-10-03T07:18:01.111Z,8.17
2022-10-03T07:21:20.955Z,10.87
2022-10-03T07:24:06.879Z,12.47
2022-10-03T07:27:19.363Z,9.40
2022-10-03T07:29:59.978Z,11.10
2022-10-03T07:32:59.470Z,6.50
2022-10-03T07:36:02.620Z,6.77
2022-10-03T07:39:01.028Z,6.97
2022-10-03T07:42:09.963Z,7.30
2022-10-03T07:45:07.577Z,8.87
2022-10-03T07:48:08.005Z,7.10
2022-10-03T07:54:47.456Z,7.03
2022-10-03T07:57:38.275Z,7.30
2022-10-03T08:00:17.987Z,7.47
2022-10-03T08:03:22.945Z,6.90
2022-10-03T08:06:26.441Z,5.50
2022-10-03T08:09:36.633Z,4.97
2022-10-03T08:12:29.850Z,5.70
2022-10-03T08:15:04.864Z,4.73
2022-10-03T08:18:06.562Z,4.30
2022-10-03T08:20:56.428Z,5.27
2022-10-03T08:23:54.300Z,5.93
2022-10-03T08:26:35.776Z,4.33
2022-10-03T08:29:27.328Z,5.50
2022-10-03T08:32:28.680Z,5.53
2022-10-03T08:35:25.893Z,5.87
2022-10-03T08:38:28.164Z,4.83
2022-10-03T08:41:34.548Z,4.87
2022-10-03T08:44:46.711Z,4.10
2022-10-03T08:47:35.129Z,4.30
2022-10-03T08:50:51.851Z,3.47
2022-10-03T08:54:01.447Z,6.53
2022-10-03T08:56:57.939Z,3.03
2022-10-03T09:00:09.193Z,3.27
2022-10-03T09:07:16.108Z,5.40
2022-10-03T09:10:33.488Z,5.17
2022-10-03T09:13:23.944Z,3.40
2022-10-03T09:16:25.250Z,2.23
2022-10-03T09:19:25.781Z,4.63
2022-10-03T09:22:19.302Z,5.47
2022-10-03T09:25:11.763Z,3.13
2022-10-03T09:27:50.694Z,3.17
2022-10-03T09:30:25.447Z,4.53
2022-10-03T09:33:30.003Z,5.00
2022-10-03T09:36:45.229Z,4.83
2022-10-03T09:39:40.797Z,4.93
2022-10-03T09:42:46.499Z,3.70
2022-10-03T09:45:49.144Z,4.57
2022-10-03T09:48:26.856Z,3.50
2022-10-03T09:51:31.017Z,6.23
2022-10-03T09:54:38.516Z,3.90
2022-10-03T09:57:50.528Z,5.10
2022-10-03T10:00:23.021Z,4.50
2022-10-03T10:03:22.073Z,3.60
2022-10-03T10:06:15.623Z,7.53
2022-10-03T10:09:24.553Z,3.00
2022-10-03T10:12:41.349Z,5.10
2022-10-03T10:15:36.793Z,4.03
2022-10-03T10:18:36.668Z,4.73
2022-10-03T10:21:43.034Z,4.40
2022-10-03T10:24:52.699Z,4.10
2022-10-03T10:27:57.554Z,3.23
2022-10-03T10:30:50.771Z,3.13
2022-10-03T10:33:53.436Z,3.33
2022-10-03T10:36:59.565Z,4.73
2022-10-03T10:39:49.094Z,3.63
2022-10-03T10:42:58.165Z,5.17
2022-10-03T10:45:45.668Z,3.03
2022-10-03T10:48:58.037Z,5.70
2022-10-03T10:51:59.157Z,5.70
2022-10-03T10:55:10.018Z,3.77
2022-10-03T10:58:16.259Z,2.20
2022-10-03T11:01:14.778Z,4.53
2022-10-03T11:04:30.760Z,7.00
2022-10-03T11:07:48.722Z,4.47
2022-10-03T11:10:39.347Z,5.47
2022-10-03T11:13:57.504Z,4.63
2022-10-03T11:17:01.211Z,3.53
2022-10-03T11:20:16.304Z,4.63
2022-10-03T11:23:23.678Z,4.27
2022-10-03T11:26:24.620Z,6.20
2022-10-03T11:29:34.147Z,4.33
2022-10-03T11:32:50.008Z,3.73
2022-10-03T11:36:06.221Z,4.03
2022-10-03T11:38:37.842Z,3.73
2022-10-03T11:41:21.212Z,4.33
2022-10-03T11:44:14.738Z,4.73
2022-10-03T11:46:57.152Z,4.00
2022-10-03T11:50:04.163Z,5.23
2022-10-03T11:52:37.748Z,3.07
2022-10-03T11:55:31.728Z,5.27
2022-10-03T11:58:15.643Z,3.37
2022-10-03T12:00:48.320Z,3.90
2022-10-03T12:03:26.388Z,4.63
2022-10-03T12:06:14.405Z,3.00
2022-10-03T12:08:57.408Z,3.87
2022-10-03T12:11:29.369Z,3.27
2022-10-03T12:14:15.574Z,3.27
2022-10-03T12:16:58.576Z,1.83
2022-10-03T12:19:31.934Z,3.73
2022-10-03T12:22:10.124Z,2.30
2022-10-03T12:24:42.081Z,3.10
2022-10-03T12:27:20.862Z,3.43
2022-10-03T12:29:58.636Z,3.83
2022-10-03T12:32:44.554Z,3.57
2022-10-03T12:35:29.710Z,4.47
2022-10-03T12:38:18.280Z,3.43
2022-10-03T12:40:54.057Z,4.43
2022-10-03T12:43:40.012Z,4.17
2022-10-03T12:46:15.541Z,4.83
2022-10-03T12:48:51.569Z,3.93
2022-10-03T12:51:32.694Z,4.03
2022-10-03T12:54:10.284Z,4.70
2022-10-03T12:56:45.464Z,3.80
2022-10-03T12:59:20.290Z,3.47
2022-10-03T13:02:08.987Z,3.80
2022-10-03T13:04:43.887Z,3.03
2022-10-03T13:07:30.476Z,2.93
2022-10-03T13:10:20.668Z,3.10
2022-10-03T13:12:55.639Z,4.50
2022-10-03T13:15:47.633Z,3.37
2022-10-03T13:18:30.304Z,3.17
2022-10-03T13:21:33.363Z,3.67
2022-10-03T13:24:02.227Z,3.33
2022-10-03T13:26:48.232Z,3.37
2022-10-03T13:29:38.909Z,2.37
2022-10-03T13:32:12.184Z,2.53
2022-10-03T13:34:54.602Z,3.50
2022-10-03T13:37:31.662Z,1.90
2022-10-03T13:40:08.046Z,2.93
2022-10-03T13:42:45.268Z,2.70
2022-10-03T13:45:15.034Z,4.03
2022-10-03T13:47:51.992Z,2.53
2022-10-03T13:50:27.687Z,1.87
2022-10-03T13:53:02.165Z,2.47
2022-10-03T13:55:42.786Z,2.63
2022-10-03T13:58:32.609Z,2.80
2022-10-03T14:01:26.934Z,2.53
2022-10-03T14:04:15.153Z,4.33
2022-10-03T14:06:48.769Z,3.08
2022-10-03T14:09:42.509Z,2.80
2022-10-03T14:12:38.275Z,4.13
2022-10-03T14:15:25.700Z,2.57
2022-10-03T14:18:02.816Z,1.80
2022-10-03T14:20:36.992Z,2.50
2022-10-03T14:23:24.712Z,2.93
2022-10-03T14:25:58.108Z,2.83
2022-10-03T14:28:32.384Z,2.27
2022-10-03T14:31:11.580Z,4.50
2022-10-03T14:33:46.335Z,5.77
2022-10-03T14:36:32.589Z,2.93
2022-10-03T14:39:10.953Z,3.20
2022-10-03T14:42:00.119Z,3.87
2022-10-03T14:44:37.820Z,2.00
2022-10-03T14:47:12.325Z,3.23
2022-10-03T14:49:56.272Z,3.90
2022-10-03T14:52:34.842Z,3.50
2022-10-03T14:55:13.379Z,2.97
2022-10-03T14:58:08.859Z,3.50
2022-10-03T15:00:39.588Z,3.37
2022-10-03T15:03:33.801Z,5.57
2022-10-03T15:06:19.900Z,4.77
2022-10-03T15:08:51.624Z,2.70
2022-10-03T15:11:27.201Z,3.60
2022-10-03T15:13:57.951Z,1.90
2022-10-03T15:16:27.155Z,3.03
2022-10-03T15:19:04.928Z,3.70
2022-10-03T15:21:35.844Z,3.07
2022-10-03T15:24:06.135Z,2.90
2022-10-03T15:26:37.330Z,3.93
2022-10-03T15:29:08.434Z,2.00
2022-10-03T15:31:39.417Z,2.87
2022-10-03T15:34:18.202Z,3.73
2022-10-03T15:36:50.059Z,3.63
2022-10-03T15:39:22.545Z,3.90
2022-10-03T15:41:55.815Z,1.57
2022-10-03T15:44:33.613Z,2.23
2022-10-03T15:47:07.319Z,3.20
2022-10-03T15:49:39.226Z,2.53
2022-10-03T15:52:16.453Z,7.67
2022-10-03T15:54:47.846Z,4.03
2022-10-03T15:57:23.269Z,3.70
2022-10-03T15:59:54.053Z,4.23
2022-10-03T16:02:29.151Z,3.97
2022-10-03T16:04:58.632Z,1.67
2022-10-03T16:07:36.259Z,5.10
2022-10-03T16:10:19.533Z,3.63
2022-10-03T16:12:56.626Z,3.33
2022-10-03T16:15:37.887Z,14.20
2022-10-03T16:18:11.577Z,5.63
2022-10-03T16:20:42.732Z,5.10
2022-10-03T16:23:17.880Z,3.83
2022-10-03T16:25:49.964Z,3.57
2022-10-03T16:28:21.995Z,5.90
2022-10-03T16:30:56.709Z,4.17
2022-10-03T16:33:28.499Z,4.07
2022-10-03T16:36:01.908Z,3.53
2022-10-03T16:38:35.952Z,3.40
2022-10-03T16:41:06.995Z,3.97
2022-10-03T16:43:35.779Z,3.07
2022-10-03T16:46:10.312Z,4.60
2022-10-03T16:48:55.560Z,4.93
2022-10-03T16:51:27.811Z,3.47
2022-10-03T16:53:57.415Z,5.53
2022-10-03T16:56:29.126Z,4.83
2022-10-03T16:59:02.133Z,3.37
2022-10-03T17:01:34.345Z,8.00
2022-10-03T17:04:17.288Z,8.67
2022-10-03T17:06:50.064Z,7.77
2022-10-03T17:09:27.571Z,7.77
2022-10-03T17:11:58.496Z,5.30
2022-10-03T17:14:28.319Z,3.57
2022-10-03T17:17:02.921Z,3.00
2022-10-03T17:19:37.079Z,4.30
2022-10-03T17:22:16.167Z,5.57
2022-10-03T17:24:49.198Z,3.97
2022-10-03T17:27:24.056Z,5.43
2022-10-03T17:29:59.512Z,4.40
2022-10-03T17:32:31.054Z,4.27
2022-10-03T17:35:05.076Z,3.43
2022-10-03T17:38:19.664Z,4.73
2022-10-03T17:40:58.562Z,3.77
2022-10-03T17:43:37.506Z,4.40
2022-10-03T17:46:12.437Z,5.23
2022-10-03T17:48:46.147Z,8.73
2022-10-03T17:51:31.433Z,6.90
2022-10-03T17:54:04.243Z,10.23
2022-10-03T17:56:34.265Z,8.07
2022-10-03T17:59:06.084Z,7.03
2022-10-03T18:01:40.140Z,7.73
2022-10-03T18:04:16.153Z,9.73
2022-10-03T18:06:48.492Z,8.27
2022-10-03T18:09:38.826Z,10.60
2022-10-03T18:12:17.045Z,11.70
2022-10-03T18:15:17.645Z,11.37
2022-10-03T18:18:01.983Z,13.00
2022-10-03T18:20:44.000Z,8.97
2022-10-03T18:23:36.812Z,9.13
2022-10-03T18:26:20.325Z,8.87
2022-10-03T18:28:57.697Z,9.13
2022-10-03T18:31:27.535Z,8.93
2022-10-03T18:33:59.131Z,9.43
2022-10-03T18:36:30.391Z,7.67
2022-10-03T18:39:03.581Z,8.03
2022-10-03T18:41:34.449Z,6.10
2022-10-03T18:44:03.181Z,6.73
2022-10-03T18:46:39.619Z,18.57
2022-10-03T18:49:35.157Z,13.83
2022-10-03T18:52:11.393Z,17.73
2022-10-03T18:54:54.428Z,12.03
2022-10-03T18:57:27.172Z,10.20
2022-10-03T19:00:02.314Z,10.90
2022-10-03T19:02:37.134Z,9.77
2022-10-03T19:05:15.542Z,8.97
2022-10-03T19:07:51.540Z,9.17
2022-10-03T19:10:28.466Z,7.67
2022-10-03T19:13:10.935Z,10.20
2022-10-03T19:15:49.624Z,10.87
2022-10-03T19:18:25.374Z,14.13
2022-10-03T19:20:56.886Z,12.53
2022-10-03T19:23:28.180Z,11.50
2022-10-03T19:25:59.049Z,8.90
2022-10-03T19:28:32.273Z,7.40
2022-10-03T19:31:04.588Z,7.00
2022-10-03T19:33:38.967Z,7.63
2022-10-03T19:36:12.125Z,9.40
2022-10-03T19:38:43.572Z,11.17
2022-10-03T19:41:23.899Z,12.03
2022-10-03T19:43:54.044Z,12.83
2022-10-03T19:46:56.263Z,12.53
2022-10-03T19:49:33.363Z,10.67
2022-10-03T19:52:13.420Z,10.20
2022-10-03T19:54:52.766Z,13.57
2022-10-03T19:57:25.632Z,11.07
2022-10-03T19:59:57.626Z,11.97
2022-10-03T20:02:28.514Z,12.20
2022-10-03T20:04:58.441Z,10.33
2022-10-03T20:07:41.780Z,9.93
2022-10-03T20:10:33.241Z,10.93
2022-10-03T20:13:03.713Z,10.60
2022-10-03T20:15:43.895Z,12.23
2022-10-03T20:18:19.225Z,9.50
2022-10-03T20:20:50.133Z,10.83
2022-10-03T20:23:20.004Z,10.23
2022-10-03T20:25:55.019Z,9.50
2022-10-03T20:28:30.481Z,10.17
2022-10-03T20:30:59.825Z,9.63
2022-10-03T20:33:30.230Z,8.23
2022-10-03T20:36:00.956Z,10.37
2022-10-03T20:38:45.571Z,8.87
2022-10-03T20:41:18.936Z,9.03
2022-10-03T20:43:54.200Z,10.97
2022-10-03T20:46:29.097Z,9.60
2022-10-03T20:49:24.278Z,8.33
2022-10-03T20:52:01.000Z,10.43
2022-10-03T20:54:36.232Z,8.90
2022-10-03T20:57:07.078Z,9.90
2022-10-03T20:59:45.160Z,9.47
2022-10-03T21:02:28.248Z,8.73
2022-10-03T21:05:00.356Z,7.93
2022-10-03T21:07:35.602Z,8.53
2022-10-03T21:10:13.475Z,7.77
2022-10-03T21:12:44.879Z,7.70
2022-10-03T21:15:20.469Z,7.03
2022-10-03T21:17:51.217Z,8.03
2022-10-03T21:20:24.024Z,6.60
2022-10-03T21:22:53.612Z,8.53
2022-10-03T21:25:26.944Z,6.80
2022-10-03T21:27:57.306Z,7.77
2022-10-03T21:30:47.328Z,6.73
2022-10-03T21:33:20.432Z,6.63
2022-10-03T21:35:51.224Z,7.70
2022-10-03T21:38:24.869Z,7.47
2022-10-03T21:41:20.029Z,10.23
2022-10-03T21:43:55.035Z,9.83
2022-10-03T21:46:33.554Z,8.20
2022-10-03T21:49:17.865Z,7.73
2022-10-03T21:52:05.877Z,7.07
2022-10-03T21:54:41.441Z,8.77
2022-10-03T21:57:15.394Z,7.20
2022-10-03T21:59:59.725Z,5.73
2022-10-03T22:02:36.219Z,6.53
2022-10-03T22:05:15.467Z,6.43
2022-10-03T22:07:44.756Z,7.20
2022-10-03T22:10:21.534Z,8.80
2022-10-03T22:12:52.712Z,9.20
2022-10-03T22:15:28.167Z,8.63
2022-10-03T22:18:00.568Z,8.53
2022-10-03T22:20:31.363Z,7.87
2022-10-03T22:23:13.202Z,9.30
2022-10-03T22:25:52.741Z,7.30
2022-10-03T22:28:30.329Z,7.23
2022-10-03T22:31:09.428Z,8.33
2022-10-03T22:33:49.597Z,7.57
2022-10-03T22:36:20.167Z,7.70
2022-10-03T22:38:50.398Z,7.00
2022-10-03T22:41:24.349Z,7.37
2022-10-03T22:43:54.505Z,6.37
2022-10-03T22:46:27.160Z,7.23
2022-10-03T22:49:00.192Z,6.03
2022-10-03T22:51:30.007Z,5.17
2022-10-03T22:54:04.301Z,7.40
2022-10-03T22:56:45.318Z,7.30
2022-10-03T22:59:19.688Z,6.57
2022-10-03T23:01:48.659Z,5.73
2022-10-03T23:04:27.556Z,4.77
2022-10-03T23:07:14.490Z,4.50
2022-10-03T23:09:52.141Z,4.93
2022-10-03T23:12:21.494Z,5.20
2022-10-03T23:14:54.341Z,6.60
2022-10-03T23:17:47.212Z,4.43
2022-10-03T23:20:22.565Z,4.97
2022-10-03T23:22:57.659Z,4.50
2022-10-03T23:25:30.261Z,4.67
2022-10-03T23:28:17.823Z,6.53
2022-10-03T23:30:51.883Z,4.57
2022-10-03T23:33:52.703Z,5.77
2022-10-03T23:36:24.792Z,5.30
2022-10-03T23:38:59.835Z,4.50
2022-10-03T23:41:56.117Z,4.40
2022-10-03T23:44:44.594Z,4.57
2022-10-03T23:47:17.396Z,6.73
2022-10-03T23:49:47.459Z,4.10
2022-10-03T23:52:21.463Z,4.70
2022-10-03T23:54:52.430Z,3.87
2022-10-03T23:57:21.328Z,4.27
2022-10-03T23:59:50.870Z,5.00
